sensor_id;sensor_type;location;lat;lon;timestamp;P1;durP1;ratioP1;P2;durP2;ratioP2
38312;SDS011;24114;52.260;6.714;2023-04-24T00:02:01;3.58;;;3.38;;
38312;SDS011;24114;52.260;6.714;2023-04-24T00:04:29;3.35;;;3.15;;
38312;SDS011;24114;52.260;6.714;2023-04-24T00:06:58;3.38;;;3.17;;
38312;SDS011;24114;52.260;6.714;2023-04-24T00:09:27;3.60;;;3.30;;
38312;SDS011;24114;52.260;6.714;2023-04-24T00:11:55;3.72;;;3.42;;
38312;SDS011;24114;52.260;6.714;2023-04-24T00:14:23;4.00;;;3.80;;
38312;SDS011;24114;52.260;6.714;2023-04-24T00:16:51;4.40;;;4.10;;
38312;SDS011;24114;52.260;6.714;2023-04-24T00:19:19;4.40;;;4.10;;
38312;SDS011;24114;52.260;6.714;2023-04-24T00:21:48;4.15;;;3.90;;
38312;SDS011;24114;52.260;6.714;2023-04-24T00:24:16;4.70;;;4.30;;
38312;SDS011;24114;52.260;6.714;2023-04-24T00:26:46;4.88;;;4.47;;
38312;SDS011;24114;52.260;6.714;2023-04-24T00:29:13;4.95;;;4.57;;
38312;SDS011;24114;52.260;6.714;2023-04-24T00:31:41;5.65;;;5.25;;
38312;SDS011;24114;52.260;6.714;2023-04-24T00:34:09;5.47;;;5.07;;
38312;SDS011;24114;52.260;6.714;2023-04-24T00:36:38;5.47;;;5.07;;
38312;SDS011;24114;52.260;6.714;2023-04-24T00:39:06;6.33;;;5.83;;
38312;SDS011;24114;52.260;6.714;2023-04-24T00:41:35;6.55;;;6.05;;
38312;SDS011;24114;52.260;6.714;2023-04-24T00:44:04;6.75;;;6.20;;
38312;SDS011;24114;52.260;6.714;2023-04-24T00:46:32;6.93;;;6.32;;
38312;SDS011;24114;52.260;6.714;2023-04-24T00:48:59;6.97;;;6.40;;
38312;SDS011;24114;52.260;6.714;2023-04-24T00:51:27;7.10;;;6.45;;
38312;SDS011;24114;52.260;6.714;2023-04-24T00:53:57;6.78;;;6.28;;
38312;SDS011;24114;52.260;6.714;2023-04-24T00:56:24;7.15;;;6.55;;
38312;SDS011;24114;52.260;6.714;2023-04-24T00:58:52;7.15;;;6.55;;
38312;SDS011;24114;52.260;6.714;2023-04-24T01:01:21;7.22;;;6.63;;
38312;SDS011;24114;52.260;6.714;2023-04-24T01:03:50;7.20;;;6.60;;
38312;SDS011;24114;52.260;6.714;2023-04-24T01:06:19;7.85;;;7.25;;
38312;SDS011;24114;52.260;6.714;2023-04-24T01:08:47;9.77;;;8.88;;
38312;SDS011;24114;52.260;6.714;2023-04-24T01:11:15;9.35;;;8.55;;
38312;SDS011;24114;52.260;6.714;2023-04-24T01:13:43;9.25;;;8.35;;
38312;SDS011;24114;52.260;6.714;2023-04-24T01:16:10;9.80;;;9.00;;
38312;SDS011;24114;52.260;6.714;2023-04-24T01:18:39;9.15;;;8.35;;
38312;SDS011;24114;52.260;6.714;2023-04-24T01:21:07;10.57;;;9.68;;
38312;SDS011;24114;52.260;6.714;2023-04-24T01:23:37;11.75;;;10.50;;
38312;SDS011;24114;52.260;6.714;2023-04-24T01:26:05;12.13;;;11.13;;
38312;SDS011;24114;52.260;6.714;2023-04-24T01:28:32;11.73;;;10.73;;
38312;SDS011;24114;52.260;6.714;2023-04-24T01:31:00;12.27;;;11.18;;
38312;SDS011;24114;52.260;6.714;2023-04-24T01:33:28;12.30;;;11.20;;
38312;SDS011;24114;52.260;6.714;2023-04-24T01:35:56;10.98;;;10.07;;
38312;SDS011;24114;52.260;6.714;2023-04-24T01:38:24;11.35;;;10.45;;
38312;SDS011;24114;52.260;6.714;2023-04-24T01:40:53;11.00;;;10.02;;
38312;SDS011;24114;52.260;6.714;2023-04-24T01:43:20;11.20;;;10.20;;
38312;SDS011;24114;52.260;6.714;2023-04-24T01:45:49;10.75;;;9.75;;
38312;SDS011;24114;52.260;6.714;2023-04-24T01:48:16;10.43;;;9.52;;
38312;SDS011;24114;52.260;6.714;2023-04-24T01:50:44;10.60;;;9.63;;
38312;SDS011;24114;52.260;6.714;2023-04-24T01:53:12;9.40;;;8.63;;
38312;SDS011;24114;52.260;6.714;2023-04-24T01:55:40;10.73;;;9.82;;
38312;SDS011;24114;52.260;6.714;2023-04-24T01:58:09;11.15;;;10.15;;
38312;SDS011;24114;52.260;6.714;2023-04-24T02:00:37;9.90;;;9.10;;
38312;SDS011;24114;52.260;6.714;2023-04-24T02:03:04;10.02;;;9.15;;
38312;SDS011;24114;52.260;6.714;2023-04-24T02:05:32;10.33;;;9.43;;
38312;SDS011;24114;52.260;6.714;2023-04-24T02:08:00;9.48;;;8.68;;
38312;SDS011;24114;52.260;6.714;2023-04-24T02:10:28;9.17;;;8.37;;
38312;SDS011;24114;52.260;6.714;2023-04-24T02:12:56;9.20;;;8.40;;
38312;SDS011;24114;52.260;6.714;2023-04-24T02:15:27;8.73;;;7.93;;
38312;SDS011;24114;52.260;6.714;2023-04-24T02:17:55;8.52;;;7.82;;
38312;SDS011;24114;52.260;6.714;2023-04-24T02:20:23;8.70;;;8.00;;
38312;SDS011;24114;52.260;6.714;2023-04-24T02:22:50;8.57;;;7.78;;
38312;SDS011;24114;52.260;6.714;2023-04-24T02:25:18;8.68;;;7.88;;
38312;SDS011;24114;52.260;6.714;2023-04-24T02:27:46;9.37;;;8.50;;
38312;SDS011;24114;52.260;6.714;2023-04-24T02:30:14;9.02;;;8.23;;
38312;SDS011;24114;52.260;6.714;2023-04-24T02:32:43;9.65;;;8.85;;
38312;SDS011;24114;52.260;6.714;2023-04-24T02:35:11;10.32;;;9.43;;
38312;SDS011;24114;52.260;6.714;2023-04-24T02:37:39;10.13;;;9.13;;
38312;SDS011;24114;52.260;6.714;2023-04-24T02:40:07;10.32;;;9.43;;
38312;SDS011;24114;52.260;6.714;2023-04-24T02:42:36;10.63;;;9.63;;
38312;SDS011;24114;52.260;6.714;2023-04-24T02:45:04;10.83;;;9.83;;
38312;SDS011;24114;52.260;6.714;2023-04-24T02:47:32;11.27;;;10.20;;
38312;SDS011;24114;52.260;6.714;2023-04-24T02:50:02;10.67;;;9.67;;
38312;SDS011;24114;52.260;6.714;2023-04-24T02:52:30;11.38;;;10.27;;
38312;SDS011;24114;52.260;6.714;2023-04-24T02:54:58;10.40;;;9.40;;
38312;SDS011;24114;52.260;6.714;2023-04-24T02:57:25;9.80;;;8.90;;
38312;SDS011;24114;52.260;6.714;2023-04-24T02:59:53;9.73;;;8.73;;
38312;SDS011;24114;52.260;6.714;2023-04-24T03:02:21;8.45;;;7.70;;
38312;SDS011;24114;52.260;6.714;2023-04-24T03:04:48;10.02;;;9.02;;
38312;SDS011;24114;52.260;6.714;2023-04-24T03:07:18;10.20;;;9.20;;
38312;SDS011;24114;52.260;6.714;2023-04-24T03:09:47;11.75;;;10.68;;
38312;SDS011;24114;52.260;6.714;2023-04-24T03:12:14;12.35;;;11.18;;
38312;SDS011;24114;52.260;6.714;2023-04-24T03:14:43;12.75;;;11.55;;
38312;SDS011;24114;52.260;6.714;2023-04-24T03:17:11;12.10;;;10.98;;
38312;SDS011;24114;52.260;6.714;2023-04-24T03:19:39;14.20;;;12.95;;
38312;SDS011;24114;52.260;6.714;2023-04-24T03:22:07;15.35;;;13.82;;
38312;SDS011;24114;52.260;6.714;2023-04-24T03:24:36;14.73;;;13.32;;
38312;SDS011;24114;52.260;6.714;2023-04-24T03:27:04;15.13;;;13.73;;
38312;SDS011;24114;52.260;6.714;2023-04-24T03:29:32;15.70;;;14.00;;
38312;SDS011;24114;52.260;6.714;2023-04-24T03:31:59;15.55;;;14.00;;
38312;SDS011;24114;52.260;6.714;2023-04-24T03:34:27;14.50;;;13.10;;
38312;SDS011;24114;52.260;6.714;2023-04-24T03:36:55;13.60;;;12.20;;
38312;SDS011;24114;52.260;6.714;2023-04-24T03:39:23;13.88;;;12.32;;
38312;SDS011;24114;52.260;6.714;2023-04-24T03:41:52;12.73;;;11.43;;
38312;SDS011;24114;52.260;6.714;2023-04-24T03:44:20;13.75;;;12.35;;
38312;SDS011;24114;52.260;6.714;2023-04-24T03:46:48;12.98;;;11.77;;
38312;SDS011;24114;52.260;6.714;2023-04-24T03:49:16;13.70;;;12.40;;
38312;SDS011;24114;52.260;6.714;2023-04-24T03:51:43;12.32;;;11.13;;
38312;SDS011;24114;52.260;6.714;2023-04-24T03:54:11;14.10;;;11.93;;
38312;SDS011;24114;52.260;6.714;2023-04-24T03:56:39;12.85;;;11.55;;
38312;SDS011;24114;52.260;6.714;2023-04-24T03:59:08;13.48;;;12.18;;
38312;SDS011;24114;52.260;6.714;2023-04-24T04:01:36;12.82;;;11.70;;
38312;SDS011;24114;52.260;6.714;2023-04-24T04:04:08;13.32;;;12.13;;
38312;SDS011;24114;52.260;6.714;2023-04-24T04:06:36;14.48;;;13.05;;
38312;SDS011;24114;52.260;6.714;2023-04-24T04:09:04;14.35;;;12.95;;
38312;SDS011;24114;52.260;6.714;2023-04-24T04:11:31;14.68;;;13.25;;
38312;SDS011;24114;52.260;6.714;2023-04-24T04:13:59;16.30;;;14.60;;
38312;SDS011;24114;52.260;6.714;2023-04-24T04:16:28;16.40;;;14.70;;
38312;SDS011;24114;52.260;6.714;2023-04-24T04:18:56;16.55;;;14.88;;
38312;SDS011;24114;52.260;6.714;2023-04-24T04:21:24;15.73;;;14.23;;
38312;SDS011;24114;52.260;6.714;2023-04-24T04:23:53;16.63;;;15.00;;
38312;SDS011;24114;52.260;6.714;2023-04-24T04:26:21;17.27;;;15.50;;
38312;SDS011;24114;52.260;6.714;2023-04-24T04:28:51;17.00;;;15.40;;
38312;SDS011;24114;52.260;6.714;2023-04-24T04:31:19;18.10;;;16.20;;
38312;SDS011;24114;52.260;6.714;2023-04-24T04:33:48;18.27;;;16.40;;
38312;SDS011;24114;52.260;6.714;2023-04-24T04:36:16;18.77;;;16.98;;
38312;SDS011;24114;52.260;6.714;2023-04-24T04:38:44;19.80;;;17.80;;
38312;SDS011;24114;52.260;6.714;2023-04-24T04:41:12;19.45;;;17.55;;
38312;SDS011;24114;52.260;6.714;2023-04-24T04:43:40;19.00;;;17.15;;
38312;SDS011;24114;52.260;6.714;2023-04-24T04:46:08;20.33;;;18.25;;
38312;SDS011;24114;52.260;6.714;2023-04-24T04:48:37;22.00;;;19.70;;
38312;SDS011;24114;52.260;6.714;2023-04-24T04:51:06;21.73;;;19.63;;
38312;SDS011;24114;52.260;6.714;2023-04-24T04:53:34;22.00;;;19.85;;
38312;SDS011;24114;52.260;6.714;2023-04-24T04:56:02;23.42;;;21.08;;
38312;SDS011;24114;52.260;6.714;2023-04-24T04:58:30;22.60;;;20.23;;
38312;SDS011;24114;52.260;6.714;2023-04-24T05:00:57;23.20;;;20.83;;
38312;SDS011;24114;52.260;6.714;2023-04-24T05:03:25;23.30;;;20.83;;
38312;SDS011;24114;52.260;6.714;2023-04-24T05:05:53;22.30;;;20.03;;
38312;SDS011;24114;52.260;6.714;2023-04-24T05:08:22;22.92;;;20.52;;
38312;SDS011;24114;52.260;6.714;2023-04-24T05:10:53;22.60;;;20.30;;
38312;SDS011;24114;52.260;6.714;2023-04-24T05:13:21;23.13;;;20.63;;
38312;SDS011;24114;52.260;6.714;2023-04-24T05:16:04;22.83;;;20.45;;
38312;SDS011;24114;52.260;6.714;2023-04-24T05:18:31;23.13;;;20.75;;
38312;SDS011;24114;52.260;6.714;2023-04-24T05:20:59;22.20;;;19.75;;
38312;SDS011;24114;52.260;6.714;2023-04-24T05:23:29;23.13;;;20.73;;
38312;SDS011;24114;52.260;6.714;2023-04-24T05:25:56;21.87;;;19.67;;
38312;SDS011;24114;52.260;6.714;2023-04-24T05:28:24;21.90;;;19.75;;
38312;SDS011;24114;52.260;6.714;2023-04-24T05:30:54;22.40;;;20.00;;
38312;SDS011;24114;52.260;6.714;2023-04-24T05:33:22;21.45;;;19.35;;
38312;SDS011;24114;52.260;6.714;2023-04-24T05:35:50;21.42;;;19.27;;
38312;SDS011;24114;52.260;6.714;2023-04-24T05:38:18;21.92;;;19.65;;
38312;SDS011;24114;52.260;6.714;2023-04-24T05:40:47;20.80;;;18.67;;
38312;SDS011;24114;52.260;6.714;2023-04-24T05:43:15;20.73;;;18.73;;
38312;SDS011;24114;52.260;6.714;2023-04-24T05:45:42;20.20;;;18.17;;
38312;SDS011;24114;52.260;6.714;2023-04-24T05:48:10;20.25;;;18.33;;
38312;SDS011;24114;52.260;6.714;2023-04-24T05:50:38;19.90;;;17.92;;
38312;SDS011;24114;52.260;6.714;2023-04-24T05:53:06;20.87;;;18.67;;
38312;SDS011;24114;52.260;6.714;2023-04-24T05:55:34;21.92;;;19.63;;
38312;SDS011;24114;52.260;6.714;2023-04-24T05:58:03;20.80;;;18.60;;
38312;SDS011;24114;52.260;6.714;2023-04-24T06:00:31;20.80;;;18.80;;
38312;SDS011;24114;52.260;6.714;2023-04-24T06:02:59;20.42;;;18.42;;
38312;SDS011;24114;52.260;6.714;2023-04-24T06:05:27;20.13;;;18.13;;
38312;SDS011;24114;52.260;6.714;2023-04-24T06:07:55;20.55;;;18.40;;
38312;SDS011;24114;52.260;6.714;2023-04-24T06:10:23;21.33;;;18.50;;
38312;SDS011;24114;52.260;6.714;2023-04-24T06:12:51;20.90;;;18.75;;
38312;SDS011;24114;52.260;6.714;2023-04-24T06:15:20;20.48;;;18.33;;
38312;SDS011;24114;52.260;6.714;2023-04-24T06:17:48;19.90;;;17.85;;
38312;SDS011;24114;52.260;6.714;2023-04-24T06:20:15;21.00;;;18.02;;
38312;SDS011;24114;52.260;6.714;2023-04-24T06:22:43;19.38;;;17.38;;
38312;SDS011;24114;52.260;6.714;2023-04-24T06:25:11;19.98;;;17.88;;
38312;SDS011;24114;52.260;6.714;2023-04-24T06:27:38;19.40;;;17.40;;
38312;SDS011;24114;52.260;6.714;2023-04-24T06:30:07;20.65;;;17.38;;
38312;SDS011;24114;52.260;6.714;2023-04-24T06:32:37;18.88;;;16.92;;
38312;SDS011;24114;52.260;6.714;2023-04-24T06:35:05;21.67;;;17.45;;
38312;SDS011;24114;52.260;6.714;2023-04-24T06:37:34;18.77;;;16.83;;
38312;SDS011;24114;52.260;6.714;2023-04-24T06:40:02;19.02;;;17.02;;
38312;SDS011;24114;52.260;6.714;2023-04-24T06:42:33;18.20;;;16.27;;
38312;SDS011;24114;52.260;6.714;2023-04-24T06:45:01;17.70;;;15.80;;
38312;SDS011;24114;52.260;6.714;2023-04-24T06:47:29;17.70;;;15.70;;
38312;SDS011;24114;52.260;6.714;2023-04-24T06:49:58;17.27;;;15.50;;
38312;SDS011;24114;52.260;6.714;2023-04-24T06:52:26;17.88;;;15.90;;
38312;SDS011;24114;52.260;6.714;2023-04-24T06:54:59;17.80;;;15.90;;
38312;SDS011;24114;52.260;6.714;2023-04-24T06:57:27;17.88;;;15.95;;
38312;SDS011;24114;52.260;6.714;2023-04-24T06:59:55;18.00;;;16.10;;
38312;SDS011;24114;52.260;6.714;2023-04-24T07:02:23;16.90;;;14.70;;
38312;SDS011;24114;52.260;6.714;2023-04-24T07:04:51;17.00;;;15.20;;
38312;SDS011;24114;52.260;6.714;2023-04-24T07:07:20;16.30;;;14.60;;
38312;SDS011;24114;52.260;6.714;2023-04-24T07:09:50;15.45;;;13.85;;
38312;SDS011;24114;52.260;6.714;2023-04-24T07:12:18;14.57;;;13.17;;
38312;SDS011;24114;52.260;6.714;2023-04-24T07:14:47;15.65;;;14.05;;
38312;SDS011;24114;52.260;6.714;2023-04-24T07:17:15;13.95;;;12.65;;
38312;SDS011;24114;52.260;6.714;2023-04-24T07:19:43;14.43;;;12.93;;
38312;SDS011;24114;52.260;6.714;2023-04-24T07:22:11;13.98;;;12.57;;
38312;SDS011;24114;52.260;6.714;2023-04-24T07:24:44;13.45;;;12.05;;
38312;SDS011;24114;52.260;6.714;2023-04-24T07:27:12;13.85;;;12.43;;
38312;SDS011;24114;52.260;6.714;2023-04-24T07:29:41;13.73;;;12.20;;
38312;SDS011;24114;52.260;6.714;2023-04-24T07:32:09;13.68;;;12.27;;
38312;SDS011;24114;52.260;6.714;2023-04-24T07:34:37;12.95;;;11.65;;
38312;SDS011;24114;52.260;6.714;2023-04-24T07:37:05;11.85;;;10.75;;
38312;SDS011;24114;52.260;6.714;2023-04-24T07:39:32;11.32;;;10.18;;
38312;SDS011;24114;52.260;6.714;2023-04-24T07:42:02;10.98;;;9.98;;
38312;SDS011;24114;52.260;6.714;2023-04-24T07:44:29;10.40;;;9.40;;
38312;SDS011;24114;52.260;6.714;2023-04-24T07:46:58;10.05;;;9.05;;
38312;SDS011;24114;52.260;6.714;2023-04-24T07:49:26;9.27;;;8.38;;
38312;SDS011;24114;52.260;6.714;2023-04-24T07:51:54;10.25;;;9.25;;
38312;SDS011;24114;52.260;6.714;2023-04-24T07:54:22;10.45;;;9.35;;
38312;SDS011;24114;52.260;6.714;2023-04-24T07:56:50;9.77;;;8.88;;
38312;SDS011;24114;52.260;6.714;2023-04-24T07:59:19;10.23;;;9.18;;
38312;SDS011;24114;52.260;6.714;2023-04-24T08:01:46;9.32;;;8.48;;
38312;SDS011;24114;52.260;6.714;2023-04-24T08:04:14;9.38;;;8.50;;
38312;SDS011;24114;52.260;6.714;2023-04-24T08:06:42;8.65;;;7.78;;
38312;SDS011;24114;52.260;6.714;2023-04-24T08:09:10;8.60;;;7.85;;
38312;SDS011;24114;52.260;6.714;2023-04-24T08:11:38;8.93;;;8.03;;
38312;SDS011;24114;52.260;6.714;2023-04-24T08:14:05;8.20;;;7.40;;
38312;SDS011;24114;52.260;6.714;2023-04-24T08:16:34;8.65;;;7.85;;
38312;SDS011;24114;52.260;6.714;2023-04-24T08:19:02;8.20;;;7.20;;
38312;SDS011;24114;52.260;6.714;2023-04-24T08:21:30;8.15;;;7.35;;
38312;SDS011;24114;52.260;6.714;2023-04-24T08:23:58;7.95;;;6.72;;
38312;SDS011;24114;52.260;6.714;2023-04-24T08:26:26;6.35;;;5.72;;
38312;SDS011;24114;52.260;6.714;2023-04-24T08:28:53;6.75;;;6.13;;
38312;SDS011;24114;52.260;6.714;2023-04-24T08:31:21;6.40;;;5.80;;
38312;SDS011;24114;52.260;6.714;2023-04-24T08:33:52;6.97;;;5.57;;
38312;SDS011;24114;52.260;6.714;2023-04-24T08:36:20;6.03;;;5.28;;
38312;SDS011;24114;52.260;6.714;2023-04-24T08:38:55;5.00;;;4.60;;
38312;SDS011;24114;52.260;6.714;2023-04-24T08:41:23;4.57;;;4.18;;
38312;SDS011;24114;52.260;6.714;2023-04-24T08:43:52;3.45;;;2.83;;
38312;SDS011;24114;52.260;6.714;2023-04-24T08:46:21;3.67;;;3.30;;
38312;SDS011;24114;52.260;6.714;2023-04-24T08:48:51;5.13;;;3.13;;
38312;SDS011;24114;52.260;6.714;2023-04-24T08:51:21;3.75;;;3.25;;
38312;SDS011;24114;52.260;6.714;2023-04-24T08:53:48;3.20;;;2.90;;
38312;SDS011;24114;52.260;6.714;2023-04-24T08:56:16;3.60;;;2.85;;
38312;SDS011;24114;52.260;6.714;2023-04-24T08:58:44;2.57;;;2.37;;
38312;SDS011;24114;52.260;6.714;2023-04-24T09:01:12;2.07;;;1.87;;
38312;SDS011;24114;52.260;6.714;2023-04-24T09:03:40;2.30;;;2.08;;
38312;SDS011;24114;52.260;6.714;2023-04-24T09:06:10;2.60;;;2.30;;
38312;SDS011;24114;52.260;6.714;2023-04-24T09:08:38;2.17;;;1.98;;
38312;SDS011;24114;52.260;6.714;2023-04-24T09:11:08;1.98;;;1.77;;
38312;SDS011;24114;52.260;6.714;2023-04-24T09:13:36;3.65;;;2.10;;
38312;SDS011;24114;52.260;6.714;2023-04-24T09:16:04;3.63;;;2.97;;
38312;SDS011;24114;52.260;6.714;2023-04-24T09:18:32;3.90;;;3.50;;
38312;SDS011;24114;52.260;6.714;2023-04-24T09:21:01;4.55;;;3.92;;
38312;SDS011;24114;52.260;6.714;2023-04-24T09:23:32;7.10;;;6.03;;
38312;SDS011;24114;52.260;6.714;2023-04-24T09:26:00;7.88;;;7.13;;
38312;SDS011;24114;52.260;6.714;2023-04-24T09:28:32;9.50;;;7.25;;
38312;SDS011;24114;52.260;6.714;2023-04-24T09:31:03;9.48;;;7.45;;
38312;SDS011;24114;52.260;6.714;2023-04-24T09:33:31;9.75;;;7.63;;
38312;SDS011;24114;52.260;6.714;2023-04-24T09:35:59;10.95;;;8.20;;
38312;SDS011;24114;52.260;6.714;2023-04-24T09:38:31;11.23;;;8.15;;
38312;SDS011;24114;52.260;6.714;2023-04-24T09:41:01;10.98;;;8.60;;
38312;SDS011;24114;52.260;6.714;2023-04-24T09:43:30;10.90;;;8.68;;
38312;SDS011;24114;52.260;6.714;2023-04-24T09:45:58;12.13;;;9.15;;
38312;SDS011;24114;52.260;6.714;2023-04-24T09:48:30;11.18;;;8.80;;
38312;SDS011;24114;52.260;6.714;2023-04-24T09:51:00;11.50;;;9.38;;
38312;SDS011;24114;52.260;6.714;2023-04-24T09:53:28;12.80;;;9.52;;
38312;SDS011;24114;52.260;6.714;2023-04-24T09:55:58;13.68;;;9.68;;
38312;SDS011;24114;52.260;6.714;2023-04-24T09:58:29;11.18;;;9.48;;
38312;SDS011;24114;52.260;6.714;2023-04-24T10:00:57;10.10;;;8.95;;
38312;SDS011;24114;52.260;6.714;2023-04-24T10:03:25;11.77;;;8.57;;
38312;SDS011;24114;52.260;6.714;2023-04-24T10:05:54;9.97;;;8.93;;
38312;SDS011;24114;52.260;6.714;2023-04-24T10:08:26;10.25;;;8.75;;
38312;SDS011;24114;52.260;6.714;2023-04-24T10:10:53;9.27;;;7.40;;
38312;SDS011;24114;52.260;6.714;2023-04-24T10:13:23;9.03;;;7.63;;
38312;SDS011;24114;52.260;6.714;2023-04-24T10:15:51;10.20;;;7.35;;
38312;SDS011;24114;52.260;6.714;2023-04-24T10:18:19;9.77;;;7.50;;
38312;SDS011;24114;52.260;6.714;2023-04-24T10:20:48;10.05;;;7.00;;
38312;SDS011;24114;52.260;6.714;2023-04-24T10:23:16;9.02;;;7.50;;
38312;SDS011;24114;52.260;6.714;2023-04-24T10:25:45;11.52;;;8.05;;
38312;SDS011;24114;52.260;6.714;2023-04-24T10:28:13;10.00;;;8.05;;
38312;SDS011;24114;52.260;6.714;2023-04-24T10:30:42;10.60;;;7.50;;
38312;SDS011;24114;52.260;6.714;2023-04-24T10:33:10;14.60;;;6.85;;
38312;SDS011;24114;52.260;6.714;2023-04-24T10:35:39;9.13;;;6.27;;
38312;SDS011;24114;52.260;6.714;2023-04-24T10:38:09;9.85;;;5.80;;
38312;SDS011;24114;52.260;6.714;2023-04-24T10:40:39;9.57;;;4.90;;
38312;SDS011;24114;52.260;6.714;2023-04-24T10:43:07;7.43;;;4.30;;
38312;SDS011;24114;52.260;6.714;2023-04-24T10:45:37;6.25;;;3.97;;
38312;SDS011;24114;52.260;6.714;2023-04-24T10:48:08;7.40;;;3.88;;
38312;SDS011;24114;52.260;6.714;2023-04-24T10:50:44;7.57;;;3.97;;
38312;SDS011;24114;52.260;6.714;2023-04-24T10:53:14;8.45;;;4.00;;
38312;SDS011;24114;52.260;6.714;2023-04-24T10:55:45;7.15;;;3.80;;
38312;SDS011;24114;52.260;6.714;2023-04-24T10:58:14;6.53;;;3.63;;
38312;SDS011;24114;52.260;6.714;2023-04-24T11:00:43;7.80;;;4.03;;
38312;SDS011;24114;52.260;6.714;2023-04-24T11:03:26;7.57;;;3.72;;
38312;SDS011;24114;52.260;6.714;2023-04-24T11:05:58;9.25;;;3.63;;
38312;SDS011;24114;52.260;6.714;2023-04-24T11:08:30;8.45;;;3.60;;
38312;SDS011;24114;52.260;6.714;2023-04-24T11:11:01;6.85;;;3.53;;
38312;SDS011;24114;52.260;6.714;2023-04-24T11:16:33;9.05;;;4.45;;
38312;SDS011;24114;52.260;6.714;2023-04-24T11:19:18;10.02;;;3.97;;
38312;SDS011;24114;52.260;6.714;2023-04-24T11:21:54;9.05;;;3.17;;
38312;SDS011;24114;52.260;6.714;2023-04-24T11:24:27;8.95;;;3.85;;
38312;SDS011;24114;52.260;6.714;2023-04-24T11:26:57;10.43;;;3.65;;
38312;SDS011;24114;52.260;6.714;2023-04-24T11:29:38;12.02;;;4.28;;
38312;SDS011;24114;52.260;6.714;2023-04-24T11:32:23;12.27;;;4.22;;
38312;SDS011;24114;52.260;6.714;2023-04-24T11:34:53;8.70;;;3.30;;
38312;SDS011;24114;52.260;6.714;2023-04-24T11:37:22;7.75;;;3.45;;
38312;SDS011;24114;52.260;6.714;2023-04-24T11:39:54;8.40;;;2.92;;
38312;SDS011;24114;52.260;6.714;2023-04-24T11:42:23;5.15;;;1.70;;
38312;SDS011;24114;52.260;6.714;2023-04-24T11:44:52;6.13;;;1.77;;
38312;SDS011;24114;52.260;6.714;2023-04-24T11:47:27;5.60;;;1.90;;
38312;SDS011;24114;52.260;6.714;2023-04-24T11:49:57;7.45;;;2.55;;
38312;SDS011;24114;52.260;6.714;2023-04-24T11:52:26;5.55;;;1.83;;
38312;SDS011;24114;52.260;6.714;2023-04-24T11:54:54;3.90;;;1.90;;
38312;SDS011;24114;52.260;6.714;2023-04-24T11:57:23;4.82;;;2.03;;
38312;SDS011;24114;52.260;6.714;2023-04-24T11:59:54;4.75;;;2.15;;
38312;SDS011;24114;52.260;6.714;2023-04-24T12:02:22;5.43;;;2.00;;
38312;SDS011;24114;52.260;6.714;2023-04-24T12:04:51;5.60;;;1.90;;
38312;SDS011;24114;52.260;6.714;2023-04-24T12:07:20;5.88;;;2.38;;
38312;SDS011;24114;52.260;6.714;2023-04-24T12:09:54;5.35;;;2.15;;
38312;SDS011;24114;52.260;6.714;2023-04-24T12:12:24;5.38;;;2.22;;
38312;SDS011;24114;52.260;6.714;2023-04-24T12:14:53;7.40;;;2.35;;
38312;SDS011;24114;52.260;6.714;2023-04-24T12:17:26;8.27;;;2.60;;
38312;SDS011;24114;52.260;6.714;2023-04-24T12:19:58;5.05;;;1.90;;
38312;SDS011;24114;52.260;6.714;2023-04-24T12:22:36;7.95;;;2.00;;
38312;SDS011;24114;52.260;6.714;2023-04-24T12:25:11;6.10;;;2.03;;
38312;SDS011;24114;52.260;6.714;2023-04-24T12:27:39;6.25;;;2.45;;
38312;SDS011;24114;52.260;6.714;2023-04-24T12:30:09;8.00;;;2.27;;
38312;SDS011;24114;52.260;6.714;2023-04-24T12:32:41;6.63;;;2.50;;
38312;SDS011;24114;52.260;6.714;2023-04-24T12:35:09;4.05;;;1.83;;
38312;SDS011;24114;52.260;6.714;2023-04-24T12:37:38;6.47;;;2.50;;
38312;SDS011;24114;52.260;6.714;2023-04-24T12:40:12;6.40;;;2.45;;
38312;SDS011;24114;52.260;6.714;2023-04-24T12:42:42;6.97;;;2.40;;
38312;SDS011;24114;52.260;6.714;2023-04-24T12:45:10;4.68;;;2.42;;
38312;SDS011;24114;52.260;6.714;2023-04-24T12:47:39;6.28;;;2.78;;
38312;SDS011;24114;52.260;6.714;2023-04-24T12:50:07;8.60;;;3.10;;
38312;SDS011;24114;52.260;6.714;2023-04-24T12:52:36;6.80;;;3.35;;
38312;SDS011;24114;52.260;6.714;2023-04-24T12:55:06;5.35;;;2.63;;
38312;SDS011;24114;52.260;6.714;2023-04-24T12:57:35;4.70;;;1.60;;
38312;SDS011;24114;52.260;6.714;2023-04-24T13:00:05;4.32;;;1.08;;
38312;SDS011;24114;52.260;6.714;2023-04-24T13:02:34;3.05;;;0.95;;
38312;SDS011;24114;52.260;6.714;2023-04-24T13:05:03;2.95;;;0.95;;
38312;SDS011;24114;52.260;6.714;2023-04-24T13:07:31;3.00;;;1.00;;
38312;SDS011;24114;52.260;6.714;2023-04-24T13:10:00;3.08;;;0.70;;
38312;SDS011;24114;52.260;6.714;2023-04-24T13:12:28;3.65;;;1.10;;
38312;SDS011;24114;52.260;6.714;2023-04-24T13:14:57;2.95;;;0.95;;
38312;SDS011;24114;52.260;6.714;2023-04-24T13:17:25;5.53;;;1.43;;
38312;SDS011;24114;52.260;6.714;2023-04-24T13:19:54;3.05;;;0.90;;
38312;SDS011;24114;52.260;6.714;2023-04-24T13:22:22;3.97;;;1.45;;
38312;SDS011;24114;52.260;6.714;2023-04-24T13:24:49;3.42;;;0.95;;
38312;SDS011;24114;52.260;6.714;2023-04-24T13:27:18;1.95;;;0.60;;
38312;SDS011;24114;52.260;6.714;2023-04-24T13:29:46;2.20;;;0.50;;
38312;SDS011;24114;52.260;6.714;2023-04-24T13:32:14;2.90;;;0.50;;
38312;SDS011;24114;52.260;6.714;2023-04-24T13:34:42;2.07;;;0.53;;
38312;SDS011;24114;52.260;6.714;2023-04-24T13:37:09;3.60;;;0.80;;
38312;SDS011;24114;52.260;6.714;2023-04-24T13:39:37;4.88;;;1.60;;
38312;SDS011;24114;52.260;6.714;2023-04-24T13:42:05;3.73;;;1.20;;
38312;SDS011;24114;52.260;6.714;2023-04-24T13:44:34;3.05;;;0.90;;
38312;SDS011;24114;52.260;6.714;2023-04-24T13:47:02;2.10;;;0.30;;
38312;SDS011;24114;52.260;6.714;2023-04-24T13:49:30;2.13;;;1.27;;
38312;SDS011;24114;52.260;6.714;2023-04-24T13:51:58;2.65;;;0.75;;
38312;SDS011;24114;52.260;6.714;2023-04-24T13:54:25;1.60;;;0.30;;
38312;SDS011;24114;52.260;6.714;2023-04-24T13:56:55;2.45;;;0.57;;
38312;SDS011;24114;52.260;6.714;2023-04-24T13:59:25;1.60;;;0.30;;
38312;SDS011;24114;52.260;6.714;2023-04-24T14:01:54;1.73;;;0.10;;
38312;SDS011;24114;52.260;6.714;2023-04-24T14:04:22;1.13;;;0.20;;
38312;SDS011;24114;52.260;6.714;2023-04-24T14:06:50;2.38;;;0.30;;
38312;SDS011;24114;52.260;6.714;2023-04-24T14:09:18;2.00;;;0.38;;
38312;SDS011;24114;52.260;6.714;2023-04-24T14:11:46;2.20;;;0.20;;
38312;SDS011;24114;52.260;6.714;2023-04-24T14:14:14;1.13;;;0.30;;
38312;SDS011;24114;52.260;6.714;2023-04-24T14:16:42;3.20;;;0.32;;
38312;SDS011;24114;52.260;6.714;2023-04-24T14:19:11;3.50;;;0.90;;
38312;SDS011;24114;52.260;6.714;2023-04-24T14:21:38;2.20;;;0.52;;
38312;SDS011;24114;52.260;6.714;2023-04-24T14:24:06;2.30;;;0.43;;
38312;SDS011;24114;52.260;6.714;2023-04-24T14:26:35;3.20;;;0.50;;
38312;SDS011;24114;52.260;6.714;2023-04-24T14:29:03;2.40;;;0.40;;
38312;SDS011;24114;52.260;6.714;2023-04-24T14:31:40;2.15;;;0.50;;
38312;SDS011;24114;52.260;6.714;2023-04-24T14:34:08;3.28;;;0.60;;
38312;SDS011;24114;52.260;6.714;2023-04-24T14:36:37;3.17;;;0.60;;
38312;SDS011;24114;52.260;6.714;2023-04-24T14:39:05;2.63;;;0.63;;
38312;SDS011;24114;52.260;6.714;2023-04-24T14:41:33;2.23;;;0.87;;
38312;SDS011;24114;52.260;6.714;2023-04-24T14:44:02;3.22;;;0.90;;
38312;SDS011;24114;52.260;6.714;2023-04-24T14:46:30;2.13;;;0.60;;
38312;SDS011;24114;52.260;6.714;2023-04-24T14:48:58;2.73;;;0.77;;
38312;SDS011;24114;52.260;6.714;2023-04-24T14:51:27;3.67;;;0.85;;